Time;durP1;ratioP1;P1;durP2;ratioP2;P2;SDS_P1;SDS_P2;PMS_P1;PMS_P2;Temp;Humidity;BMP_temperature;BMP_pressure;BME280_temperature;BME280_humidity;BME280_pressure;Samples;Min_cycle;Max_cycle;Signal;HPM_P1;HPM_P2
2024/01/10 00:01:19;;;;;;;10.10;3.00;;;;;;;;;;5012677;28;20104;-60
2024/01/10 00:03:45;;;;;;;7.07;3.22;;;;;;;;;;5017005;28;20037;-60
2024/01/10 00:06:11;;;;;;;6.90;3.15;;;;;;;;;;5011814;28;20084;-61
2024/01/10 00:08:38;;;;;;;8.75;2.95;;;;;;;;;;5014798;28;20086;-60
2024/01/10 00:11:04;;;;;;;7.40;2.63;;;;;;;;;;5012863;28;20041;-60
2024/01/10 00:13:33;;;;;;;6.50;2.88;;;;;;;;;;5014735;28;20120;-60
2024/01/10 00:15:59;;;;;;;5.75;2.25;;;;;;;;;;5011419;28;20552;-60
2024/01/10 00:18:26;;;;;;;11.25;2.53;;;;;;;;;;5030532;28;20484;-61
2024/01/10 00:20:55;;;;;;;4.97;2.35;;;;;;;;;;5011678;28;20059;-60
2024/01/10 00:23:21;;;;;;;12.35;2.00;;;;;;;;;;5011597;28;20033;-60
2024/01/10 00:25:48;;;;;;;3.17;2.78;;;;;;;;;;5012208;28;20037;-60
2024/01/10 00:28:16;;;;;;;2.90;2.20;;;;;;;;;;5012164;28;20108;-60
2024/01/10 00:30:43;;;;;;;6.53;2.35;;;;;;;;;;5013627;28;20497;-59
2024/01/10 00:33:09;;;;;;;3.80;2.65;;;;;;;;;;5028166;28;20034;-60
2024/01/10 00:35:35;;;;;;;3.40;2.33;;;;;;;;;;5015768;28;20180;-61
2024/01/10 00:38:01;;;;;;;2.15;1.80;;;;;;;;;;5017269;28;20392;-60
2024/01/10 00:40:28;;;;;;;7.03;2.30;;;;;;;;;;5016615;28;20116;-60
2024/01/10 00:42:54;;;;;;;9.65;3.25;;;;;;;;;;5012695;28;20671;-60
2024/01/10 00:45:20;;;;;;;3.78;2.33;;;;;;;;;;5017190;28;20127;-60
2024/01/10 00:47:47;;;;;;;9.38;2.50;;;;;;;;;;5011089;28;20095;-60
2024/01/10 00:50:13;;;;;;;7.60;1.90;;;;;;;;;;5010638;28;20084;-60
2024/01/10 00:52:39;;;;;;;1.83;1.67;;;;;;;;;;5010424;28;20029;-60
2024/01/10 00:55:05;;;;;;;2.38;2.00;;;;;;;;;;5013097;28;20053;-60
2024/01/10 00:57:31;;;;;;;2.72;1.65;;;;;;;;;;5017537;28;20068;-60
2024/01/10 00:59:58;;;;;;;4.30;1.70;;;;;;;;;;5010413;28;20121;-61
2024/01/10 01:02:24;;;;;;;1.88;1.73;;;;;;;;;;5009631;28;20029;-60
2024/01/10 01:04:50;;;;;;;3.13;2.13;;;;;;;;;;5011601;28;20032;-61
2024/01/10 01:07:16;;;;;;;4.70;2.40;;;;;;;;;;5005220;28;20026;-60
2024/01/10 01:09:42;;;;;;;4.65;1.77;;;;;;;;;;5013188;28;20042;-60
2024/01/10 01:12:08;;;;;;;1.90;1.70;;;;;;;;;;5010040;28;20555;-61
2024/01/10 01:14:34;;;;;;;2.42;2.00;;;;;;;;;;5019054;28;20037;-60
2024/01/10 01:17:01;;;;;;;2.15;1.63;;;;;;;;;;5014490;28;20075;-60
2024/01/10 01:19:27;;;;;;;2.15;1.67;;;;;;;;;;5016375;28;20025;-60
2024/01/10 01:21:53;;;;;;;2.17;1.83;;;;;;;;;;5015714;28;20211;-60
2024/01/10 01:24:19;;;;;;;5.65;2.33;;;;;;;;;;5019103;28;20033;-61
2024/01/10 01:26:46;;;;;;;2.40;2.20;;;;;;;;;;5015768;28;20029;-60
2024/01/10 01:29:12;;;;;;;4.35;2.00;;;;;;;;;;5017702;28;20068;-60
2024/01/10 01:31:38;;;;;;;2.70;2.50;;;;;;;;;;5017654;28;20489;-63
2024/01/10 01:34:04;;;;;;;7.10;2.53;;;;;;;;;;5013723;28;20359;-60
2024/01/10 01:36:34;;;;;;;6.05;1.80;;;;;;;;;;5021824;28;20420;-60
2024/01/10 01:39:00;;;;;;;2.95;2.08;;;;;;;;;;5017865;28;20030;-61
2024/01/10 01:41:27;;;;;;;2.13;1.73;;;;;;;;;;5018389;28;20033;-61
2024/01/10 01:43:53;;;;;;;2.63;1.80;;;;;;;;;;5014951;28;20060;-60
2024/01/10 01:46:19;;;;;;;2.05;1.95;;;;;;;;;;5019353;28;20507;-61
2024/01/10 01:48:45;;;;;;;4.53;1.92;;;;;;;;;;5016632;28;20037;-60
2024/01/10 01:51:13;;;;;;;2.80;2.15;;;;;;;;;;5034589;28;20095;-60
2024/01/10 01:53:40;;;;;;;5.72;1.75;;;;;;;;;;5018791;28;20044;-60
2024/01/10 01:56:07;;;;;;;2.00;1.80;;;;;;;;;;5017062;28;20065;-60
2024/01/10 01:58:34;;;;;;;1.02;1.02;;;;;;;;;;5016990;28;20111;-61
2024/01/10 02:01:00;;;;;;;4.82;2.20;;;;;;;;;;5014475;28;20041;-59
2024/01/10 02:03:27;;;;;;;2.88;1.80;;;;;;;;;;5014116;28;20038;-60
2024/01/10 02:05:54;;;;;;;1.88;1.40;;;;;;;;;;5006613;28;20030;-60
2024/01/10 02:08:20;;;;;;;7.18;2.03;;;;;;;;;;5019572;28;20291;-60
2024/01/10 02:10:46;;;;;;;4.00;2.50;;;;;;;;;;5018154;28;20591;-60
2024/01/10 02:13:12;;;;;;;2.47;1.85;;;;;;;;;;5011044;28;20211;-60
2024/01/10 02:15:39;;;;;;;2.17;1.98;;;;;;;;;;5018797;28;20481;-60
2024/01/10 02:18:10;;;;;;;1.63;1.52;;;;;;;;;;5019238;28;20451;-60
2024/01/10 02:20:36;;;;;;;4.20;2.17;;;;;;;;;;5013271;28;20021;-60
2024/01/10 02:23:03;;;;;;;3.65;1.80;;;;;;;;;;5021093;28;20022;-61
2024/01/10 02:25:29;;;;;;;6.95;1.85;;;;;;;;;;5019354;28;20021;-60
2024/01/10 02:27:55;;;;;;;2.05;1.77;;;;;;;;;;5019021;28;20033;-60
2024/01/10 02:30:21;;;;;;;3.55;2.08;;;;;;;;;;5019635;28;20227;-61
2024/01/10 02:32:47;;;;;;;5.03;1.85;;;;;;;;;;5022281;28;20389;-60
2024/01/10 02:35:13;;;;;;;1.27;1.25;;;;;;;;;;5016566;28;20025;-60
2024/01/10 02:37:39;;;;;;;1.75;1.60;;;;;;;;;;5014554;28;20342;-60
2024/01/10 02:40:06;;;;;;;1.42;1.30;;;;;;;;;;5014951;28;20449;-60
2024/01/10 02:42:32;;;;;;;2.75;2.13;;;;;;;;;;5014332;28;20025;-60
2024/01/10 02:44:58;;;;;;;5.25;2.05;;;;;;;;;;5016621;28;20052;-60
2024/01/10 02:47:25;;;;;;;1.35;1.33;;;;;;;;;;5019496;28;20026;-63
2024/01/10 02:49:51;;;;;;;4.22;1.40;;;;;;;;;;5013659;28;20231;-60
2024/01/10 02:52:19;;;;;;;4.18;2.05;;;;;;;;;;5011665;28;20025;-60
2024/01/10 02:54:46;;;;;;;2.22;2.03;;;;;;;;;;5015301;28;20067;-60
2024/01/10 02:57:12;;;;;;;2.30;2.10;;;;;;;;;;5012075;28;20044;-60
2024/01/10 02:59:38;;;;;;;6.90;1.70;;;;;;;;;;5025212;28;20049;-60
2024/01/10 03:02:05;;;;;;;2.05;1.60;;;;;;;;;;5032588;28;21102;-60
2024/01/10 03:04:31;;;;;;;6.03;1.83;;;;;;;;;;5034274;28;20501;-60
2024/01/10 03:06:57;;;;;;;2.60;2.05;;;;;;;;;;5017556;28;20355;-60
2024/01/10 03:09:23;;;;;;;4.32;1.60;;;;;;;;;;5019778;28;20086;-60
2024/01/10 03:11:50;;;;;;;2.83;1.80;;;;;;;;;;5012223;28;20385;-61
2024/01/10 03:14:16;;;;;;;1.65;1.55;;;;;;;;;;5018516;28;20404;-61
2024/01/10 03:16:42;;;;;;;2.60;1.50;;;;;;;;;;5013094;28;20033;-60
2024/01/10 03:19:08;;;;;;;1.80;1.50;;;;;;;;;;5020600;28;20032;-60
2024/01/10 03:21:34;;;;;;;7.88;1.65;;;;;;;;;;5015892;28;20025;-60
2024/01/10 03:24:01;;;;;;;2.50;1.73;;;;;;;;;;5020368;28;20057;-60
2024/01/10 03:26:30;;;;;;;7.75;1.67;;;;;;;;;;5015290;28;20227;-60
2024/01/10 03:28:56;;;;;;;2.72;1.50;;;;;;;;;;5007460;28;20423;-60
2024/01/10 03:31:22;;;;;;;9.48;2.13;;;;;;;;;;5011900;28;20059;-66
2024/01/10 03:33:49;;;;;;;2.47;1.70;;;;;;;;;;5015192;28;20030;-60
2024/01/10 03:36:18;;;;;;;2.00;1.75;;;;;;;;;;5010782;28;20026;-60
2024/01/10 03:38:45;;;;;;;1.30;1.30;;;;;;;;;;5009438;28;20129;-60
2024/01/10 03:41:15;;;;;;;2.10;1.90;;;;;;;;;;5028629;28;20092;-61
2024/01/10 03:43:41;;;;;;;2.80;1.90;;;;;;;;;;5033356;28;20033;-63
2024/01/10 03:46:08;;;;;;;1.23;1.23;;;;;;;;;;5015890;28;20441;-61
2024/01/10 03:48:34;;;;;;;1.60;1.50;;;;;;;;;;5012895;28;20036;-60
2024/01/10 03:51:00;;;;;;;2.95;1.40;;;;;;;;;;5033155;28;20053;-60
2024/01/10 03:53:27;;;;;;;1.70;1.60;;;;;;;;;;5008934;28;20046;-61
2024/01/10 03:55:53;;;;;;;2.67;1.73;;;;;;;;;;5014820;28;20128;-60
2024/01/10 03:58:19;;;;;;;8.05;1.60;;;;;;;;;;5006675;28;20079;-61
2024/01/10 04:00:45;;;;;;;2.33;2.13;;;;;;;;;;5017751;28;20021;-61
2024/01/10 04:03:11;;;;;;;1.60;1.50;;;;;;;;;;5013173;28;20642;-60
2024/01/10 04:05:37;;;;;;;1.40;1.38;;;;;;;;;;5018677;28;20041;-60
2024/01/10 04:08:04;;;;;;;13.05;2.08;;;;;;;;;;5013025;28;20396;-60
2024/01/10 04:10:30;;;;;;;1.77;1.67;;;;;;;;;;5017979;28;20021;-60
2024/01/10 04:12:56;;;;;;;2.00;1.85;;;;;;;;;;5007057;28;20033;-60
2024/01/10 04:15:22;;;;;;;10.95;2.13;;;;;;;;;;5022267;28;20033;-59
2024/01/10 04:17:49;;;;;;;3.20;2.10;;;;;;;;;;5017656;28;20033;-60
2024/01/10 04:20:15;;;;;;;8.95;2.15;;;;;;;;;;5012319;28;20056;-60
2024/01/10 04:22:41;;;;;;;2.05;1.63;;;;;;;;;;5015931;28;20083;-60
2024/01/10 04:25:08;;;;;;;8.60;2.08;;;;;;;;;;5019635;28;20093;-60
2024/01/10 04:27:34;;;;;;;1.50;1.40;;;;;;;;;;5014819;28;20451;-61
2024/01/10 04:30:00;;;;;;;8.63;1.95;;;;;;;;;;5016675;28;20539;-60
2024/01/10 04:32:26;;;;;;;1.23;1.23;;;;;;;;;;5010850;28;20033;-61
2024/01/10 04:34:52;;;;;;;7.40;2.17;;;;;;;;;;5018841;28;20087;-61
2024/01/10 04:37:18;;;;;;;3.63;1.40;;;;;;;;;;5011029;28;20071;-60
2024/01/10 04:39:45;;;;;;;1.77;1.67;;;;;;;;;;5017851;28;20021;-60
2024/01/10 04:42:11;;;;;;;2.08;1.95;;;;;;;;;;5017523;28;20053;-60
2024/01/10 04:44:38;;;;;;;1.17;1.17;;;;;;;;;;5010312;28;20033;-61
2024/01/10 04:47:04;;;;;;;1.60;1.50;;;;;;;;;;5020959;28;20055;-61
2024/01/10 04:49:30;;;;;;;4.07;1.70;;;;;;;;;;5021705;28;20030;-60
2024/01/10 04:51:57;;;;;;;1.85;1.73;;;;;;;;;;5012861;28;20041;-61
2024/01/10 04:54:23;;;;;;;2.30;1.55;;;;;;;;;;5014383;28;20083;-66
2024/01/10 04:56:49;;;;;;;16.55;2.15;;;;;;;;;;5013719;28;20030;-60
2024/01/10 04:59:15;;;;;;;4.65;1.83;;;;;;;;;;5014822;28;20037;-60
2024/01/10 05:01:41;;;;;;;3.50;2.17;;;;;;;;;;5030563;28;20018;-60
2024/01/10 05:04:07;;;;;;;1.48;1.38;;;;;;;;;;5015031;28;20084;-59
2024/01/10 05:06:34;;;;;;;7.57;1.63;;;;;;;;;;5010755;28;20037;-60
2024/01/10 05:09:00;;;;;;;1.83;1.52;;;;;;;;;;5013235;28;20037;-61
2024/01/10 05:11:26;;;;;;;4.85;1.77;;;;;;;;;;5028477;28;20037;-61
2024/01/10 05:13:53;;;;;;;4.93;1.80;;;;;;;;;;5015580;28;20109;-60
2024/01/10 05:16:19;;;;;;;7.63;1.80;;;;;;;;;;5019274;28;20104;-60
2024/01/10 05:18:45;;;;;;;1.00;1.00;;;;;;;;;;5014540;28;20386;-60
2024/01/10 05:21:11;;;;;;;1.30;1.30;;;;;;;;;;5016565;28;20628;-61
2024/01/10 05:23:39;;;;;;;6.68;1.73;;;;;;;;;;5008009;28;20080;-60
2024/01/10 05:26:05;;;;;;;2.78;1.55;;;;;;;;;;5020301;28;20421;-60
2024/01/10 05:28:31;;;;;;;4.03;1.33;;;;;;;;;;5019621;28;20033;-60
2024/01/10 05:30:58;;;;;;;1.90;1.40;;;;;;;;;;5020693;28;20034;-60
2024/01/10 05:33:24;;;;;;;1.95;1.50;;;;;;;;;;5013377;28;20113;-60
2024/01/10 05:35:50;;;;;;;1.80;1.67;;;;;;;;;;5021016;28;20131;-59
2024/01/10 05:38:16;;;;;;;8.10;1.95;;;;;;;;;;5019421;28;20038;-60
2024/01/10 05:40:43;;;;;;;1.63;1.52;;;;;;;;;;5023682;28;20037;-60
2024/01/10 05:43:12;;;;;;;2.47;1.48;;;;;;;;;;5011287;28;20025;-60
2024/01/10 05:45:38;;;;;;;1.45;1.42;;;;;;;;;;5017161;28;20068;-60
2024/01/10 05:48:06;;;;;;;1.10;1.10;;;;;;;;;;5009779;28;20034;-60
2024/01/10 05:50:32;;;;;;;1.95;1.50;;;;;;;;;;5021902;28;20046;-60
2024/01/10 05:52:59;;;;;;;2.00;1.42;;;;;;;;;;5013856;28;20029;-60
2024/01/10 05:55:25;;;;;;;2.88;1.50;;;;;;;;;;5017905;28;20026;-60
2024/01/10 05:57:51;;;;;;;1.27;1.27;;;;;;;;;;5022682;28;20064;-60
2024/01/10 06:00:17;;;;;;;1.55;1.45;;;;;;;;;;5029700;28;20026;-61
2024/01/10 06:02:43;;;;;;;1.08;1.08;;;;;;;;;;5013951;28;20028;-60
2024/01/10 06:05:10;;;;;;;1.15;1.15;;;;;;;;;;5016722;28;20030;-60
2024/01/10 06:07:37;;;;;;;1.30;1.25;;;;;;;;;;5017324;28;20036;-60
2024/01/10 06:10:03;;;;;;;4.65;1.52;;;;;;;;;;5018573;28;20079;-60
2024/01/10 06:12:30;;;;;;;1.00;1.00;;;;;;;;;;5015755;28;20032;-60
2024/01/10 06:14:57;;;;;;;3.40;1.40;;;;;;;;;;5022873;28;20088;-60
2024/01/10 06:17:23;;;;;;;1.20;1.20;;;;;;;;;;5011636;28;20026;-60
2024/01/10 06:19:50;;;;;;;3.72;2.10;;;;;;;;;;5017099;28;20043;-60
2024/01/10 06:22:16;;;;;;;1.75;1.33;;;;;;;;;;5014602;28;20072;-60
2024/01/10 06:24:42;;;;;;;3.58;1.30;;;;;;;;;;5027483;28;20048;-60
2024/01/10 06:27:09;;;;;;;1.65;1.55;;;;;;;;;;5012516;28;20108;-61
2024/01/10 06:29:36;;;;;;;3.55;1.67;;;;;;;;;;5016299;28;20032;-60
2024/01/10 06:32:03;;;;;;;1.77;1.65;;;;;;;;;;5011592;28;20135;-61
2024/01/10 06:34:29;;;;;;;1.20;1.20;;;;;;;;;;5013958;28;20026;-60
2024/01/10 06:36:55;;;;;;;1.40;1.30;;;;;;;;;;5015898;28;20564;-60
2024/01/10 06:39:21;;;;;;;3.05;1.52;;;;;;;;;;5013432;28;20590;-60
2024/01/10 06:41:48;;;;;;;3.67;1.20;;;;;;;;;;5022957;28;20029;-60
2024/01/10 06:44:17;;;;;;;1.30;1.20;;;;;;;;;;5019532;28;20496;-59
2024/01/10 06:46:43;;;;;;;1.05;1.05;;;;;;;;;;5024865;28;20448;-60
2024/01/10 06:49:10;;;;;;;2.75;1.00;;;;;;;;;;5019374;28;20032;-60
2024/01/10 06:51:36;;;;;;;2.67;1.23;;;;;;;;;;5015175;28;20048;-60
2024/01/10 06:54:03;;;;;;;1.50;1.40;;;;;;;;;;5018487;28;20503;-60
2024/01/10 06:56:33;;;;;;;1.85;1.50;;;;;;;;;;5016278;28;20030;-60
2024/01/10 06:59:00;;;;;;;1.15;1.15;;;;;;;;;;5011987;28;20014;-60
2024/01/10 07:01:26;;;;;;;3.85;1.73;;;;;;;;;;5018830;28;20116;-60
2024/01/10 07:03:54;;;;;;;1.20;1.20;;;;;;;;;;5010284;28;20108;-60
2024/01/10 07:06:20;;;;;;;4.97;1.60;;;;;;;;;;5016528;28;20087;-60
2024/01/10 07:08:49;;;;;;;1.48;1.30;;;;;;;;;;5021819;28;20025;-60
2024/01/10 07:11:22;;;;;;;1.10;1.00;;;;;;;;;;5031640;28;20080;-60
2024/01/10 07:13:48;;;;;;;2.08;1.65;;;;;;;;;;5014555;28;20030;-60
2024/01/10 07:16:18;;;;;;;3.75;1.17;;;;;;;;;;5017700;28;20509;-60
2024/01/10 07:18:50;;;;;;;1.65;1.55;;;;;;;;;;5007641;28;20022;-60
2024/01/10 07:21:16;;;;;;;11.88;2.10;;;;;;;;;;5017027;28;20069;-60
2024/01/10 07:23:43;;;;;;;0.98;0.98;;;;;;;;;;5016964;28;20034;-60
2024/01/10 07:26:09;;;;;;;1.50;1.45;;;;;;;;;;5022492;28;20079;-61
2024/01/10 07:28:35;;;;;;;1.40;1.30;;;;;;;;;;5014322;28;20033;-60
2024/01/10 07:31:02;;;;;;;1.58;1.45;;;;;;;;;;5010979;28;20084;-60
2024/01/10 07:33:30;;;;;;;1.17;1.17;;;;;;;;;;5016829;28;20092;-60
2024/01/10 07:35:58;;;;;;;1.38;1.20;;;;;;;;;;5010701;28;20037;-60
2024/01/10 07:38:24;;;;;;;3.47;1.42;;;;;;;;;;5017509;28;20039;-64
2024/01/10 07:40:50;;;;;;;2.42;1.00;;;;;;;;;;5011176;28;20489;-60
2024/01/10 07:43:16;;;;;;;1.27;1.20;;;;;;;;;;5010312;28;20018;-60
2024/01/10 07:45:42;;;;;;;1.02;1.02;;;;;;;;;;5015554;28;20150;-60
2024/01/10 07:48:08;;;;;;;3.13;1.25;;;;;;;;;;5027795;28;20033;-60
2024/01/10 07:50:34;;;;;;;4.03;1.42;;;;;;;;;;5029930;28;20563;-60
2024/01/10 07:53:01;;;;;;;1.20;1.20;;;;;;;;;;5034649;28;20037;-59
2024/01/10 07:55:30;;;;;;;1.25;1.25;;;;;;;;;;5008265;28;20042;-60
2024/01/10 07:57:56;;;;;;;1.38;1.33;;;;;;;;;;5027319;28;20036;-60
2024/01/10 08:00:22;;;;;;;1.48;1.38;;;;;;;;;;5011952;28;20564;-60
2024/01/10 08:02:50;;;;;;;1.25;1.25;;;;;;;;;;5009216;28;20034;-60
2024/01/10 08:05:16;;;;;;;1.33;1.25;;;;;;;;;;5007229;28;20385;-61
2024/01/10 08:07:42;;;;;;;3.75;1.25;;;;;;;;;;5023618;28;20535;-60
2024/01/10 08:10:09;;;;;;;6.32;1.40;;;;;;;;;;5009545;28;20057;-60
2024/01/10 08:12:36;;;;;;;1.38;1.38;;;;;;;;;;5020175;28;20025;-60
2024/01/10 08:15:02;;;;;;;2.50;1.83;;;;;;;;;;5013271;28;20543;-61
2024/01/10 08:17:28;;;;;;;1.95;1.40;;;;;;;;;;5014007;28;20580;-60
2024/01/10 08:19:54;;;;;;;1.35;1.33;;;;;;;;;;5006934;28;20034;-72
2024/01/10 08:22:20;;;;;;;1.20;1.20;;;;;;;;;;5022258;28;20113;-72
2024/01/10 08:24:47;;;;;;;3.72;1.73;;;;;;;;;;5005716;28;20469;-71
2024/01/10 08:27:14;;;;;;;1.30;1.20;;;;;;;;;;5016830;28;20033;-71
2024/01/10 08:29:40;;;;;;;4.15;1.63;;;;;;;;;;5016368;28;20389;-71
2024/01/10 08:32:06;;;;;;;1.70;1.60;;;;;;;;;;5011074;28;20183;-71
2024/01/10 08:34:33;;;;;;;1.45;1.35;;;;;;;;;;5016589;28;20057;-71
2024/01/10 08:36:59;;;;;;;1.35;1.35;;;;;;;;;;5022612;28;20088;-71
2024/01/10 08:39:28;;;;;;;1.40;1.30;;;;;;;;;;5029369;28;20101;-71
2024/01/10 08:41:55;;;;;;;1.48;1.30;;;;;;;;;;5006289;28;20104;-71
2024/01/10 08:44:21;;;;;;;2.17;1.50;;;;;;;;;;5015478;28;20026;-72
2024/01/10 08:46:48;;;;;;;1.20;1.20;;;;;;;;;;5011695;28;20084;-71
2024/01/10 08:49:14;;;;;;;1.65;1.55;;;;;;;;;;5021880;28;20434;-71
2024/01/10 08:51:40;;;;;;;1.20;1.20;;;;;;;;;;5014508;28;20038;-72
2024/01/10 08:54:07;;;;;;;1.25;1.25;;;;;;;;;;5015418;28;20037;-71
2024/01/10 08:56:34;;;;;;;1.85;1.30;;;;;;;;;;5011855;28;20028;-72
2024/01/10 08:59:01;;;;;;;1.27;1.25;;;;;;;;;;5015208;28;20481;-71
2024/01/10 09:01:27;;;;;;;1.20;1.20;;;;;;;;;;5018300;28;20446;-72
2024/01/10 09:03:54;;;;;;;1.52;1.42;;;;;;;;;;5009377;28;20030;-71
2024/01/10 09:06:20;;;;;;;1.67;1.50;;;;;;;;;;5012085;28;20034;-72
2024/01/10 09:08:47;;;;;;;1.20;1.20;;;;;;;;;;5034759;28;20039;-72
2024/01/10 09:11:13;;;;;;;1.30;1.27;;;;;;;;;;5033433;28;20481;-72
2024/01/10 09:13:40;;;;;;;1.52;1.45;;;;;;;;;;5014290;28;20033;-71
2024/01/10 09:16:06;;;;;;;2.20;1.23;;;;;;;;;;5022640;28;20501;-71
2024/01/10 09:18:32;;;;;;;1.08;1.08;;;;;;;;;;5015554;28;20549;-71
2024/01/10 09:20:58;;;;;;;1.90;1.77;;;;;;;;;;5030558;28;20030;-71
2024/01/10 09:23:25;;;;;;;3.35;1.50;;;;;;;;;;5012438;28;20021;-71
2024/01/10 09:25:51;;;;;;;1.60;1.50;;;;;;;;;;5015611;28;20036;-71
2024/01/10 09:28:17;;;;;;;1.67;1.58;;;;;;;;;;5012361;28;20021;-71
2024/01/10 09:30:43;;;;;;;1.20;1.20;;;;;;;;;;5011816;28;20029;-71
2024/01/10 09:33:09;;;;;;;1.65;1.52;;;;;;;;;;5021615;28;20021;-72
2024/01/10 09:35:35;;;;;;;2.40;1.45;;;;;;;;;;5014552;28;20124;-72
2024/01/10 09:38:01;;;;;;;1.52;1.33;;;;;;;;;;5013923;28;20470;-71
2024/01/10 09:40:29;;;;;;;1.15;1.15;;;;;;;;;;5017031;28;20022;-71
2024/01/10 09:42:55;;;;;;;7.13;1.30;;;;;;;;;;5013079;28;20324;-71
2024/01/10 09:45:24;;;;;;;1.20;1.20;;;;;;;;;;5029230;28;20069;-71
2024/01/10 09:47:56;;;;;;;1.40;1.30;;;;;;;;;;5025831;28;20501;-72
2024/01/10 09:50:22;;;;;;;1.80;1.70;;;;;;;;;;5041658;28;20421;-71
2024/01/10 09:52:52;;;;;;;1.20;1.20;;;;;;;;;;5023335;28;20033;-71
2024/01/10 09:55:22;;;;;;;3.15;1.75;;;;;;;;;;5023980;28;20037;-70
2024/01/10 09:57:49;;;;;;;1.33;1.30;;;;;;;;;;5022905;28;20029;-71
2024/01/10 10:00:15;;;;;;;1.55;1.45;;;;;;;;;;5026158;28;20064;-71
2024/01/10 10:02:42;;;;;;;3.63;1.55;;;;;;;;;;5029602;28;20026;-72
2024/01/10 10:05:09;;;;;;;5.15;1.38;;;;;;;;;;5011523;28;20029;-71
2024/01/10 10:07:45;;;;;;;1.30;1.30;;;;;;;;;;5023648;28;20075;-71
2024/01/10 10:10:15;;;;;;;2.38;1.45;;;;;;;;;;5011601;28;20105;-71
2024/01/10 10:12:48;;;;;;;1.65;1.55;;;;;;;;;;5017951;28;20299;-71
2024/01/10 10:15:15;;;;;;;1.27;1.27;;;;;;;;;;5021697;28;20082;-72
2024/01/10 10:17:48;;;;;;;1.38;1.27;;;;;;;;;;5020280;28;20025;-71
2024/01/10 10:20:16;;;;;;;1.20;1.20;;;;;;;;;;5024207;28;20044;-71
2024/01/10 10:22:58;;;;;;;1.77;1.42;;;;;;;;;;5014325;28;20038;-71
2024/01/10 10:25:26;;;;;;;1.05;1.05;;;;;;;;;;5019773;28;20377;-71
2024/01/10 10:27:52;;;;;;;1.48;1.42;;;;;;;;;;5015408;28;20089;-71
2024/01/10 10:30:18;;;;;;;1.30;1.20;;;;;;;;;;5022182;28;20544;-71
2024/01/10 10:32:47;;;;;;;1.42;1.02;;;;;;;;;;5026761;28;20033;-71
2024/01/10 10:35:14;;;;;;;1.20;1.20;;;;;;;;;;5026733;28;20037;-71
2024/01/10 10:37:40;;;;;;;2.33;1.60;;;;;;;;;;5014371;28;20025;-71
2024/01/10 10:40:09;;;;;;;1.65;1.25;;;;;;;;;;5033888;28;20079;-71
2024/01/10 10:42:36;;;;;;;1.17;1.10;;;;;;;;;;5017603;28;20076;-71
2024/01/10 10:45:05;;;;;;;1.20;1.17;;;;;;;;;;5029302;28;20045;-71
2024/01/10 10:47:35;;;;;;;1.20;1.20;;;;;;;;;;5019164;28;20048;-71
2024/01/10 10:50:03;;;;;;;1.75;1.33;;;;;;;;;;5011256;28;20529;-71
2024/01/10 10:52:29;;;;;;;0.93;0.93;;;;;;;;;;5017741;28;20029;-71
2024/01/10 10:54:57;;;;;;;4.18;1.50;;;;;;;;;;5029256;28;20037;-71
2024/01/10 10:57:25;;;;;;;1.00;1.00;;;;;;;;;;5016569;28;21311;-71
2024/01/10 10:59:52;;;;;;;1.20;1.20;;;;;;;;;;5029955;28;20030;-71
2024/01/10 11:02:22;;;;;;;3.80;1.30;;;;;;;;;;5026618;28;20116;-71
2024/01/10 11:04:49;;;;;;;1.05;1.05;;;;;;;;;;5027991;28;20488;-71
2024/01/10 11:07:15;;;;;;;2.50;1.45;;;;;;;;;;5014727;28;20037;-59
2024/01/10 11:09:42;;;;;;;1.63;1.52;;;;;;;;;;5020569;28;20112;-59
2024/01/10 11:12:14;;;;;;;2.55;1.30;;;;;;;;;;5015894;28;20117;-59
2024/01/10 11:14:47;;;;;;;7.45;1.30;;;;;;;;;;5021586;28;20500;-59
2024/01/10 11:17:17;;;;;;;1.17;1.17;;;;;;;;;;5009714;28;20052;-60
2024/01/10 11:20:03;;;;;;;1.20;1.20;;;;;;;;;;5035230;28;20017;-60
2024/01/10 11:22:49;;;;;;;1.00;1.00;;;;;;;;;;5009368;28;20036;-59
2024/01/10 11:25:17;;;;;;;1.00;1.00;;;;;;;;;;5014374;28;20087;-59
2024/01/10 11:27:44;;;;;;;1.10;1.10;;;;;;;;;;5034767;28;20511;-59
2024/01/10 11:30:11;;;;;;;1.20;1.20;;;;;;;;;;5029187;28;20545;-61
2024/01/10 11:32:37;;;;;;;1.15;1.15;;;;;;;;;;5014349;28;20058;-61
2024/01/10 11:35:24;;;;;;;1.83;1.33;;;;;;;;;;5017968;28;20040;-60
2024/01/10 11:37:51;;;;;;;1.58;1.50;;;;;;;;;;5007601;28;20029;-60
2024/01/10 11:40:24;;;;;;;1.15;1.15;;;;;;;;;;5009443;28;20026;-60
2024/01/10 11:42:52;;;;;;;1.20;1.20;;;;;;;;;;5019305;28;20143;-59
2024/01/10 11:45:34;;;;;;;1.67;1.40;;;;;;;;;;5011371;28;20569;-59
2024/01/10 11:48:00;;;;;;;1.35;1.30;;;;;;;;;;5017611;28;20028;-61
2024/01/10 11:50:26;;;;;;;2.70;1.63;;;;;;;;;;5013697;28;20045;-60
2024/01/10 11:52:56;;;;;;;1.33;1.33;;;;;;;;;;5016550;28;20041;-60
2024/01/10 11:55:40;;;;;;;1.60;1.40;;;;;;;;;;5026374;28;20441;-60
2024/01/10 11:58:10;;;;;;;2.65;1.77;;;;;;;;;;5023717;28;20079;-60
2024/01/10 12:00:37;;;;;;;2.20;2.00;;;;;;;;;;5020533;28;20022;-60
2024/01/10 12:03:03;;;;;;;1.88;1.40;;;;;;;;;;5021774;28;20378;-60
2024/01/10 12:05:29;;;;;;;2.33;1.80;;;;;;;;;;5010031;28;20545;-60
2024/01/10 12:07:56;;;;;;;2.17;1.65;;;;;;;;;;5023360;28;20544;-59
2024/01/10 12:10:22;;;;;;;2.08;1.50;;;;;;;;;;5009776;28;20397;-60
2024/01/10 12:12:48;;;;;;;2.03;1.88;;;;;;;;;;5014651;28;20101;-60
2024/01/10 12:15:15;;;;;;;1.70;1.60;;;;;;;;;;5009949;28;20630;-60
2024/01/10 12:17:41;;;;;;;1.90;1.70;;;;;;;;;;5024482;28;20056;-60
2024/01/10 12:20:07;;;;;;;1.80;1.70;;;;;;;;;;5008285;28;20037;-60
2024/01/10 12:22:33;;;;;;;2.17;1.38;;;;;;;;;;5024471;28;20238;-60
2024/01/10 12:25:05;;;;;;;1.58;1.42;;;;;;;;;;5007820;28;20034;-61
2024/01/10 12:27:31;;;;;;;1.75;1.40;;;;;;;;;;5019834;28;20053;-60
2024/01/10 12:29:58;;;;;;;1.00;1.00;;;;;;;;;;5012386;28;20037;-60
2024/01/10 12:32:24;;;;;;;2.25;1.33;;;;;;;;;;5024055;28;20029;-59
2024/01/10 12:34:55;;;;;;;1.65;1.55;;;;;;;;;;5015772;28;20322;-59
2024/01/10 12:37:21;;;;;;;2.60;1.70;;;;;;;;;;5008825;28;20502;-60
2024/01/10 12:39:47;;;;;;;2.45;1.67;;;;;;;;;;5026266;28;20435;-59
2024/01/10 12:42:13;;;;;;;1.30;1.30;;;;;;;;;;5024619;28;20063;-61
2024/01/10 12:44:43;;;;;;;1.92;1.83;;;;;;;;;;5011045;28;20060;-59
2024/01/10 12:47:18;;;;;;;2.20;1.60;;;;;;;;;;5025329;28;20583;-60
2024/01/10 12:49:44;;;;;;;1.23;1.23;;;;;;;;;;5006513;28;20133;-60
2024/01/10 12:52:10;;;;;;;5.35;1.60;;;;;;;;;;5014595;28;20029;-59
2024/01/10 12:54:36;;;;;;;2.10;1.27;;;;;;;;;;5013731;28;20690;-60
2024/01/10 12:57:02;;;;;;;1.95;1.45;;;;;;;;;;5013942;28;20065;-59
2024/01/10 12:59:28;;;;;;;2.35;1.70;;;;;;;;;;5010057;28;20079;-59
2024/01/10 13:01:54;;;;;;;1.92;1.73;;;;;;;;;;5023288;28;20021;-60
2024/01/10 13:04:21;;;;;;;1.77;1.67;;;;;;;;;;5032943;28;20393;-59
2024/01/10 13:06:47;;;;;;;1.80;1.70;;;;;;;;;;5018651;28;20108;-60
2024/01/10 13:09:13;;;;;;;1.30;1.30;;;;;;;;;;5042317;28;20083;-60
2024/01/10 13:11:39;;;;;;;1.23;1.23;;;;;;;;;;5014628;28;20022;-59
2024/01/10 13:14:05;;;;;;;2.35;2.10;;;;;;;;;;5022779;28;20468;-59
2024/01/10 13:16:31;;;;;;;2.45;2.08;;;;;;;;;;5017924;28;20025;-60
2024/01/10 13:19:00;;;;;;;1.95;1.77;;;;;;;;;;5016292;28;20030;-59
2024/01/10 13:21:27;;;;;;;5.18;2.13;;;;;;;;;;5028000;28;20112;-60
2024/01/10 13:23:53;;;;;;;6.47;2.10;;;;;;;;;;5019335;28;20602;-59
2024/01/10 13:26:19;;;;;;;1.60;1.50;;;;;;;;;;5019986;28;20029;-60
2024/01/10 13:28:45;;;;;;;3.30;1.67;;;;;;;;;;5031087;28;20021;-60
2024/01/10 13:31:12;;;;;;;2.78;1.67;;;;;;;;;;5035517;28;20970;-60
2024/01/10 13:33:38;;;;;;;4.72;1.80;;;;;;;;;;5013435;28;20034;-60
2024/01/10 13:36:05;;;;;;;1.73;1.63;;;;;;;;;;5020216;28;20056;-59
2024/01/10 13:38:31;;;;;;;1.73;1.63;;;;;;;;;;5011989;28;20030;-59
2024/01/10 13:40:57;;;;;;;1.73;1.63;;;;;;;;;;5020546;28;20095;-60
2024/01/10 13:43:23;;;;;;;2.10;2.00;;;;;;;;;;5022253;28;20478;-59
2024/01/10 13:45:50;;;;;;;1.30;1.30;;;;;;;;;;5017101;28;20041;-59
2024/01/10 13:48:16;;;;;;;2.30;2.10;;;;;;;;;;5013871;28;20034;-59
2024/01/10 13:50:42;;;;;;;1.75;1.65;;;;;;;;;;5017940;28;20529;-60
2024/01/10 13:53:08;;;;;;;5.40;2.80;;;;;;;;;;5019678;28;20021;-59
2024/01/10 13:55:35;;;;;;;1.60;1.50;;;;;;;;;;5015658;28;20567;-59
2024/01/10 13:58:03;;;;;;;1.55;1.45;;;;;;;;;;5022321;28;20109;-60
2024/01/10 14:00:29;;;;;;;2.22;1.60;;;;;;;;;;5009826;28;20037;-60
2024/01/10 14:02:59;;;;;;;1.70;1.60;;;;;;;;;;5018078;28;20054;-59
2024/01/10 14:05:25;;;;;;;1.58;1.48;;;;;;;;;;5021345;28;20108;-60
2024/01/10 14:07:52;;;;;;;1.50;1.40;;;;;;;;;;5021891;28;20033;-60
2024/01/10 14:10:18;;;;;;;4.13;1.55;;;;;;;;;;5014888;28;20437;-60
2024/01/10 14:12:45;;;;;;;1.30;1.30;;;;;;;;;;5016786;28;20025;-59
2024/01/10 14:15:11;;;;;;;3.67;1.85;;;;;;;;;;5021309;28;20600;-62
2024/01/10 14:17:38;;;;;;;3.53;1.58;;;;;;;;;;5031744;28;20104;-60
2024/01/10 14:20:04;;;;;;;1.90;1.58;;;;;;;;;;5011289;28;20021;-63
2024/01/10 14:22:30;;;;;;;1.60;1.50;;;;;;;;;;5009956;28;20033;-59
2024/01/10 14:24:57;;;;;;;4.88;2.30;;;;;;;;;;5013899;28;20605;-59
2024/01/10 14:27:24;;;;;;;1.75;1.50;;;;;;;;;;5020021;28;20037;-60
2024/01/10 14:29:50;;;;;;;4.00;1.48;;;;;;;;;;5017828;28;20022;-59
2024/01/10 14:32:16;;;;;;;2.72;2.35;;;;;;;;;;5023334;28;20041;-60
2024/01/10 14:34:44;;;;;;;2.40;2.00;;;;;;;;;;5020349;28;20482;-60
2024/01/10 14:37:10;;;;;;;1.33;1.30;;;;;;;;;;5022337;28;20468;-59
2024/01/10 14:39:40;;;;;;;1.13;1.13;;;;;;;;;;5011428;28;20060;-59
2024/01/10 14:42:13;;;;;;;4.28;1.70;;;;;;;;;;5020319;28;20033;-62